createdAt,value
2023-04-16T00:01:19.041Z,11.80
2023-04-16T00:03:47.455Z,17.53
2023-04-16T00:06:15.908Z,12.10
2023-04-16T00:08:45.416Z,15.73
2023-04-16T00:11:13.740Z,14.87
2023-04-16T00:13:41.909Z,16.93
2023-04-16T00:16:10.326Z,18.07
2023-04-16T00:18:39.417Z,19.53
2023-04-16T00:21:08.307Z,15.13
2023-04-16T00:23:36.577Z,13.90
2023-04-16T00:26:06.431Z,13.40
2023-04-16T00:28:34.638Z,18.23
2023-04-16T00:31:03.102Z,11.53
2023-04-16T00:33:31.337Z,15.17
2023-04-16T00:35:59.508Z,13.17
2023-04-16T00:38:30.192Z,10.70
2023-04-16T00:40:58.791Z,15.30
2023-04-16T00:43:28.857Z,18.80
2023-04-16T00:45:58.401Z,15.90
2023-04-16T00:48:27.822Z,13.43
2023-04-16T00:50:56.451Z,20.63
2023-04-16T00:53:28.748Z,12.70
2023-04-16T00:55:57.699Z,14.70
2023-04-16T00:58:28.031Z,19.23
2023-04-16T01:00:56.735Z,11.73
2023-04-16T01:03:25.465Z,15.93
2023-04-16T01:05:53.770Z,16.03
2023-04-16T01:08:22.904Z,13.73
2023-04-16T01:10:51.004Z,11.13
2023-04-16T01:13:19.211Z,17.07
2023-04-16T01:15:48.710Z,13.30
2023-04-16T01:18:17.465Z,15.20
2023-04-16T01:20:49.536Z,14.60
2023-04-16T01:23:19.392Z,12.60
2023-04-16T01:25:47.613Z,15.70
2023-04-16T01:28:15.778Z,14.30
2023-04-16T01:30:44.118Z,17.43
2023-04-16T01:33:12.797Z,18.30
2023-04-16T01:35:41.937Z,21.43
2023-04-16T01:38:11.865Z,23.73
2023-04-16T01:40:40.318Z,21.67
2023-04-16T01:43:08.570Z,15.60
2023-04-16T01:45:37.204Z,15.93
2023-04-16T01:48:06.138Z,14.43
2023-04-16T01:50:35.527Z,15.50
2023-04-16T01:53:05.098Z,13.80
2023-04-16T01:55:35.329Z,28.27
2023-04-16T01:58:03.527Z,20.43
2023-04-16T02:00:31.811Z,15.23
2023-04-16T02:03:00.450Z,13.33
2023-04-16T02:05:28.731Z,22.23
2023-04-16T02:07:56.921Z,15.47
2023-04-16T02:10:25.133Z,16.33
2023-04-16T02:12:54.630Z,22.70
2023-04-16T02:15:23.857Z,17.80
2023-04-16T02:17:56.585Z,25.53
2023-04-16T02:20:24.778Z,18.23
2023-04-16T02:22:53.070Z,18.60
2023-04-16T02:25:21.203Z,22.23
2023-04-16T02:27:49.434Z,25.43
2023-04-16T02:30:19.104Z,20.80
2023-04-16T02:32:47.235Z,27.97
2023-04-16T02:35:15.789Z,18.50
2023-04-16T02:37:44.122Z,17.00
2023-04-16T02:40:13.053Z,21.93
2023-04-16T02:42:41.437Z,19.67
2023-04-16T02:45:11.513Z,18.20
2023-04-16T02:47:41.315Z,23.43
2023-04-16T02:50:10.152Z,18.63
2023-04-16T02:52:38.319Z,19.43
2023-04-16T02:55:08.498Z,20.13
2023-04-16T02:57:36.864Z,22.70
2023-04-16T03:00:06.079Z,18.17
2023-04-16T03:02:34.315Z,17.77
2023-04-16T03:05:04.005Z,26.27
2023-04-16T03:07:32.266Z,18.13
2023-04-16T03:10:00.443Z,17.63
2023-04-16T03:12:28.748Z,20.63
2023-04-16T03:14:57.074Z,22.00
2023-04-16T03:17:25.358Z,21.40
2023-04-16T03:19:53.603Z,20.90
2023-04-16T03:22:23.106Z,19.07
2023-04-16T03:24:51.453Z,23.60
2023-04-16T03:27:19.616Z,26.47
2023-04-16T03:29:47.777Z,22.97
2023-04-16T03:32:16.295Z,28.80
2023-04-16T03:34:44.516Z,26.23
2023-04-16T03:37:12.953Z,23.37
2023-04-16T03:39:42.502Z,23.70
2023-04-16T03:42:10.648Z,19.17
2023-04-16T03:44:38.766Z,24.33
2023-04-16T03:47:07.094Z,18.13
2023-04-16T03:49:35.277Z,23.33
2023-04-16T03:52:03.516Z,26.90
2023-04-16T03:54:31.697Z,16.60
2023-04-16T03:57:01.242Z,24.20
2023-04-16T03:59:29.399Z,25.40
2023-04-16T04:01:57.678Z,21.17
2023-04-16T04:04:25.989Z,22.40
2023-04-16T04:06:54.196Z,18.47
2023-04-16T04:09:22.323Z,22.90
2023-04-16T04:11:51.242Z,29.33
2023-04-16T04:14:20.719Z,25.27
2023-04-16T04:16:48.891Z,24.60
2023-04-16T04:19:17.010Z,25.13
2023-04-16T04:21:45.170Z,27.93
2023-04-16T04:24:13.320Z,30.00
2023-04-16T04:26:41.684Z,33.90
2023-04-16T04:29:10.075Z,28.97
2023-04-16T04:31:39.847Z,21.00
2023-04-16T04:34:08.088Z,27.00
2023-04-16T04:36:36.229Z,27.10
2023-04-16T04:39:04.596Z,27.00
2023-04-16T04:41:32.861Z,33.53
2023-04-16T04:44:01.136Z,26.00
2023-04-16T04:46:29.381Z,30.53
2023-04-16T04:48:58.893Z,28.83
2023-04-16T04:51:27.738Z,23.10
2023-04-16T04:53:56.071Z,28.37
2023-04-16T04:56:24.387Z,34.97
2023-04-16T04:58:52.562Z,32.93
2023-04-16T05:01:20.896Z,35.90
2023-04-16T05:03:49.201Z,35.37
2023-04-16T05:06:19.342Z,28.83
2023-04-16T05:08:47.520Z,30.00
2023-04-16T05:11:15.992Z,36.87
2023-04-16T05:13:44.106Z,40.23
2023-04-16T05:16:12.307Z,28.47
2023-04-16T05:18:40.511Z,34.73
2023-04-16T05:21:08.653Z,30.77
2023-04-16T05:23:38.302Z,34.00
2023-04-16T05:26:06.615Z,34.13
2023-04-16T05:28:34.795Z,31.87
2023-04-16T05:31:03.365Z,36.07
2023-04-16T05:33:31.581Z,35.90
2023-04-16T05:35:59.751Z,38.83
2023-04-16T05:38:27.894Z,40.03
2023-04-16T05:40:57.397Z,37.60
2023-04-16T05:43:25.628Z,36.73
2023-04-16T05:45:53.810Z,32.07
2023-04-16T05:48:21.976Z,29.10
2023-04-16T05:50:50.778Z,27.63
2023-04-16T05:53:19.905Z,35.77
2023-04-16T05:55:48.110Z,27.33
2023-04-16T05:58:17.586Z,31.83
2023-04-16T06:00:46.239Z,30.07
2023-04-16T06:03:14.693Z,34.53
2023-04-16T06:05:42.944Z,27.40
2023-04-16T06:08:11.395Z,30.57
2023-04-16T06:10:39.970Z,31.10
2023-04-16T06:13:08.132Z,30.00
2023-04-16T06:15:37.763Z,31.63
2023-04-16T06:18:06.053Z,28.40
2023-04-16T06:20:34.576Z,38.03
2023-04-16T06:23:02.737Z,27.40
2023-04-16T06:25:30.891Z,38.13
2023-04-16T06:27:59.108Z,34.60
2023-04-16T06:30:27.451Z,28.20
2023-04-16T06:32:57.622Z,30.27
2023-04-16T06:35:25.886Z,33.67
2023-04-16T06:37:54.028Z,27.73
2023-04-16T06:40:22.211Z,30.67
2023-04-16T06:42:50.381Z,25.83
2023-04-16T06:45:18.589Z,28.90
2023-04-16T06:47:47.978Z,25.97
2023-04-16T06:50:17.821Z,29.87
2023-04-16T06:52:46.164Z,20.80
2023-04-16T06:55:14.325Z,22.77
2023-04-16T06:57:42.650Z,18.40
2023-04-16T07:00:11.917Z,20.50
2023-04-16T07:02:40.247Z,19.63
2023-04-16T07:05:09.922Z,22.23
2023-04-16T07:07:39.519Z,20.83
2023-04-16T07:10:09.042Z,17.53
2023-04-16T07:12:37.293Z,20.47
2023-04-16T07:15:06.778Z,20.07
2023-04-16T07:17:35.046Z,19.30
2023-04-16T07:20:03.348Z,15.97
2023-04-16T07:22:31.512Z,18.63
2023-04-16T07:25:01.318Z,25.23
2023-04-16T07:27:29.652Z,18.30
2023-04-16T07:29:57.787Z,20.57
2023-04-16T07:32:26.370Z,15.40
2023-04-16T07:34:55.500Z,18.53
2023-04-16T07:37:23.786Z,21.20
2023-04-16T07:39:52.512Z,17.93
2023-04-16T07:42:22.255Z,20.10
2023-04-16T07:44:50.494Z,20.57
2023-04-16T07:47:18.755Z,23.20
2023-04-16T07:49:46.903Z,18.13
2023-04-16T07:52:15.462Z,20.73
2023-04-16T07:54:43.938Z,19.20
2023-04-16T07:57:12.631Z,24.40
2023-04-16T07:59:42.200Z,23.80
2023-04-16T08:02:13.989Z,25.47
2023-04-16T08:04:42.792Z,20.43
2023-04-16T08:07:11.243Z,23.43
2023-04-16T08:09:49.061Z,33.10
2023-04-16T08:12:17.818Z,26.80
2023-04-16T08:14:47.607Z,28.20
2023-04-16T08:17:16.468Z,25.77
2023-04-16T08:19:45.433Z,33.20
2023-04-16T08:22:13.987Z,33.27
2023-04-16T08:24:42.304Z,37.43
2023-04-16T08:27:18.527Z,31.87
2023-04-16T08:29:49.404Z,40.10
2023-04-16T08:32:17.644Z,43.37
2023-04-16T08:34:45.881Z,50.03
2023-04-16T08:37:14.101Z,46.83
2023-04-16T08:39:42.327Z,43.57
2023-04-16T08:42:19.798Z,50.60
2023-04-16T08:44:50.272Z,50.73
2023-04-16T08:47:18.873Z,49.47
2023-04-16T08:49:47.185Z,44.70
2023-04-16T08:52:19.297Z,48.53
2023-04-16T08:54:56.824Z,46.30
2023-04-16T08:57:27.820Z,43.83
2023-04-16T08:59:58.426Z,45.60
2023-04-16T09:02:27.880Z,37.03
2023-04-16T09:04:58.621Z,35.83
2023-04-16T09:07:28.482Z,34.37
2023-04-16T09:10:00.419Z,43.20
2023-04-16T09:12:28.991Z,33.20
2023-04-16T09:14:59.754Z,39.30
2023-04-16T09:17:28.240Z,35.20
2023-04-16T09:19:56.597Z,35.20
2023-04-16T09:22:24.782Z,37.93
2023-04-16T09:24:52.958Z,38.07
2023-04-16T09:27:23.746Z,36.07
2023-04-16T09:29:53.568Z,35.00
2023-04-16T09:32:27.172Z,37.53
2023-04-16T09:34:58.191Z,41.80
2023-04-16T09:37:27.204Z,42.00
2023-04-16T09:39:57.559Z,41.90
2023-04-16T09:42:28.201Z,41.27
2023-04-16T09:44:59.880Z,40.83
2023-04-16T09:47:42.431Z,44.10
2023-04-16T09:50:18.090Z,37.03
2023-04-16T09:52:50.314Z,41.20
2023-04-16T09:55:24.159Z,36.03
2023-04-16T09:57:59.849Z,35.90
2023-04-16T10:00:29.717Z,41.40
2023-04-16T10:03:07.085Z,30.90
2023-04-16T10:05:35.571Z,33.30
2023-04-16T10:08:04.049Z,30.27
2023-04-16T10:10:33.232Z,28.63
2023-04-16T10:13:02.525Z,31.40
2023-04-16T10:15:31.354Z,26.90
2023-04-16T10:18:00.232Z,31.93
2023-04-16T10:20:30.496Z,30.87
2023-04-16T10:22:59.714Z,29.03
2023-04-16T10:25:29.430Z,27.53
2023-04-16T10:27:59.441Z,26.63
2023-04-16T10:30:28.748Z,29.20
2023-04-16T10:33:00.252Z,27.20
2023-04-16T10:35:31.132Z,28.77
2023-04-16T10:38:19.446Z,30.00
2023-04-16T10:40:48.921Z,32.87
2023-04-16T10:43:19.615Z,29.00
2023-04-16T10:45:49.639Z,25.60
2023-04-16T10:48:20.079Z,33.97
2023-04-16T10:50:57.986Z,28.00
2023-04-16T10:53:27.889Z,29.10
2023-04-16T10:56:00.046Z,29.30
2023-04-16T10:58:28.755Z,30.53
2023-04-16T11:00:59.884Z,29.97
2023-04-16T11:03:32.476Z,27.37
2023-04-16T11:06:26.091Z,32.23
2023-04-16T11:08:55.393Z,33.83
2023-04-16T11:11:24.590Z,32.60
2023-04-16T11:13:57.744Z,29.57
2023-04-16T11:16:27.406Z,28.57
2023-04-16T11:18:57.078Z,27.07
2023-04-16T11:21:28.620Z,26.93
2023-04-16T11:23:58.740Z,34.93
2023-04-16T11:26:28.699Z,30.53
2023-04-16T11:28:57.635Z,30.70
2023-04-16T11:31:27.436Z,32.13
2023-04-16T11:33:57.790Z,37.10
2023-04-16T11:36:28.076Z,32.77
2023-04-16T11:39:03.863Z,29.90
2023-04-16T11:41:32.324Z,28.00
2023-04-16T11:44:00.512Z,27.60
2023-04-16T11:46:40.480Z,29.80
2023-04-16T11:49:09.343Z,29.60
2023-04-16T11:51:42.628Z,25.53
2023-04-16T11:54:18.997Z,29.33
2023-04-16T11:56:48.612Z,27.00
2023-04-16T11:59:17.949Z,24.83
2023-04-16T12:01:49.361Z,29.73
2023-04-16T12:04:20.245Z,26.73
2023-04-16T12:07:09.533Z,29.87
2023-04-16T12:09:40.926Z,29.43
2023-04-16T12:12:28.312Z,27.90
2023-04-16T12:14:59.506Z,30.33
2023-04-16T12:17:27.897Z,29.67
2023-04-16T12:19:58.264Z,30.50
2023-04-16T12:22:32.904Z,32.37
2023-04-16T12:25:03.838Z,28.27
2023-04-16T12:27:46.738Z,27.77
2023-04-16T12:30:17.050Z,27.17
2023-04-16T12:32:48.394Z,28.90
2023-04-16T12:35:31.088Z,25.03
2023-04-16T12:38:00.974Z,27.17
2023-04-16T12:40:29.225Z,29.40
2023-04-16T12:42:57.372Z,28.23
2023-04-16T12:45:25.996Z,30.23
2023-04-16T12:47:54.229Z,24.27
2023-04-16T12:50:22.754Z,25.00
2023-04-16T12:52:51.081Z,31.20
2023-04-16T12:55:20.894Z,24.70
2023-04-16T12:57:49.762Z,24.20
2023-04-16T13:00:18.403Z,24.83
2023-04-16T13:02:47.028Z,23.93
2023-04-16T13:05:16.598Z,21.50
2023-04-16T13:07:45.098Z,19.87
2023-04-16T13:10:13.824Z,20.80
2023-04-16T13:12:43.573Z,22.73
2023-04-16T13:15:12.316Z,18.40
2023-04-16T13:17:40.617Z,21.67
2023-04-16T13:20:09.996Z,22.53
2023-04-16T13:22:38.491Z,18.73
2023-04-16T13:25:07.810Z,18.60
2023-04-16T13:27:36.184Z,18.70
2023-04-16T13:30:06.506Z,17.27
2023-04-16T13:32:34.757Z,15.00
2023-04-16T13:35:03.019Z,18.07
2023-04-16T13:37:31.199Z,14.60
2023-04-16T13:39:59.415Z,15.30
2023-04-16T13:42:28.369Z,16.27
2023-04-16T13:44:58.203Z,14.23
2023-04-16T13:47:27.839Z,21.90
2023-04-16T13:49:56.303Z,18.37
2023-04-16T13:52:24.481Z,15.70
2023-04-16T13:54:52.688Z,15.80
2023-04-16T13:57:21.131Z,15.90
2023-04-16T13:59:49.403Z,15.40
2023-04-16T14:02:17.751Z,15.93
2023-04-16T14:04:47.382Z,14.53
2023-04-16T14:07:16.297Z,15.63
2023-04-16T14:09:44.512Z,12.80
2023-04-16T14:12:12.678Z,16.13
2023-04-16T14:14:40.911Z,15.93
2023-04-16T14:17:09.045Z,13.40
2023-04-16T14:19:37.218Z,15.93
2023-04-16T14:22:08.786Z,12.40
2023-04-16T14:24:37.754Z,13.80
2023-04-16T14:27:05.928Z,12.40
2023-04-16T14:29:34.108Z,12.90
2023-04-16T14:32:02.356Z,12.53
2023-04-16T14:34:30.504Z,11.90
2023-04-16T14:36:58.765Z,12.20
2023-04-16T14:39:28.271Z,13.30
2023-04-16T14:41:56.500Z,14.13
2023-04-16T14:44:24.676Z,13.60
2023-04-16T14:46:53.044Z,13.33
2023-04-16T14:49:21.281Z,14.13
2023-04-16T14:51:49.514Z,12.73
2023-04-16T14:54:17.746Z,13.17
2023-04-16T14:56:48.306Z,12.53
2023-04-16T14:59:16.538Z,15.63
2023-04-16T15:01:44.822Z,13.70
2023-04-16T15:04:13.298Z,12.00
2023-04-16T15:06:42.023Z,12.07
2023-04-16T15:09:10.438Z,11.60
2023-04-16T15:11:38.765Z,12.70
2023-04-16T15:14:08.756Z,13.67
2023-04-16T15:16:37.166Z,15.27
2023-04-16T15:19:05.491Z,15.33
2023-04-16T15:21:33.912Z,14.70
2023-04-16T15:24:02.521Z,15.17
2023-04-16T15:26:30.934Z,14.97
2023-04-16T15:28:59.182Z,14.63
2023-04-16T15:31:28.849Z,17.03
2023-04-16T15:33:57.073Z,14.13
2023-04-16T15:36:26.620Z,16.77
2023-04-16T15:38:54.861Z,17.13
2023-04-16T15:41:23.162Z,15.60
2023-04-16T15:43:51.750Z,14.20
2023-04-16T15:46:19.960Z,14.47
2023-04-16T15:48:49.536Z,15.40
2023-04-16T15:51:17.768Z,14.37
2023-04-16T15:53:45.899Z,14.20
2023-04-16T15:56:14.112Z,16.33
2023-04-16T15:58:42.333Z,14.10
2023-04-16T16:01:10.566Z,14.43
2023-04-16T16:03:39.001Z,12.90
2023-04-16T16:06:09.078Z,14.00
2023-04-16T16:08:38.267Z,16.67
2023-04-16T16:11:07.252Z,12.20
2023-04-16T16:13:35.940Z,14.70
2023-04-16T16:16:04.394Z,12.17
2023-04-16T16:18:32.623Z,12.60
2023-04-16T16:21:01.426Z,11.43
2023-04-16T16:23:31.295Z,11.20
2023-04-16T16:25:59.589Z,13.13
2023-04-16T16:28:27.766Z,13.83
2023-04-16T16:30:58.632Z,14.77
2023-04-16T16:33:27.937Z,12.23
2023-04-16T16:35:56.140Z,12.47
2023-04-16T16:38:24.403Z,16.37
2023-04-16T16:40:53.875Z,12.30
2023-04-16T16:43:22.471Z,13.40
2023-04-16T16:45:50.634Z,13.30
2023-04-16T16:48:19.217Z,10.50
2023-04-16T16:50:47.420Z,12.90
2023-04-16T16:53:15.765Z,14.67
2023-04-16T16:55:43.951Z,16.30
2023-04-16T16:58:13.471Z,13.37
2023-04-16T17:00:41.774Z,12.10
2023-04-16T17:03:10.116Z,15.10
2023-04-16T17:05:38.398Z,12.87
2023-04-16T17:08:07.252Z,14.10
2023-04-16T17:10:36.537Z,15.50
2023-04-16T17:13:04.757Z,14.13
2023-04-16T17:15:34.372Z,12.70
2023-04-16T17:18:02.548Z,15.33
2023-04-16T17:20:32.480Z,17.97
2023-04-16T17:23:00.689Z,20.73
2023-04-16T17:25:28.983Z,28.43
2023-04-16T17:27:57.175Z,25.97
2023-04-16T17:30:27.710Z,24.63
2023-04-16T17:32:57.317Z,22.47
2023-04-16T17:35:25.862Z,26.33
2023-04-16T17:37:54.002Z,27.47
2023-04-16T17:40:22.241Z,26.97
2023-04-16T17:42:51.267Z,26.20
2023-04-16T17:45:19.595Z,26.17
2023-04-16T17:47:47.853Z,25.57
2023-04-16T17:50:17.526Z,25.80
2023-04-16T17:52:47.183Z,30.80
2023-04-16T17:55:15.543Z,21.30
2023-04-16T17:57:44.602Z,26.70
2023-04-16T18:00:14.242Z,25.57
2023-04-16T18:02:42.766Z,23.13
2023-04-16T18:05:11.573Z,25.93
2023-04-16T18:07:41.108Z,22.10
2023-04-16T18:10:10.726Z,21.93
2023-04-16T18:12:38.882Z,25.27
2023-04-16T18:15:08.201Z,21.70
2023-04-16T18:17:36.419Z,22.60
2023-04-16T18:20:08.901Z,24.23
2023-04-16T18:22:37.004Z,21.00
2023-04-16T18:25:07.816Z,22.70
2023-04-16T18:27:39.374Z,25.03
2023-04-16T18:32:43.329Z,26.77
2023-04-16T18:35:23.113Z,25.30
2023-04-16T18:37:51.551Z,23.80
2023-04-16T18:40:21.358Z,28.63
2023-04-16T18:42:49.526Z,35.17
2023-04-16T18:45:21.740Z,31.27
2023-04-16T18:47:50.769Z,26.40
2023-04-16T18:50:19.201Z,26.87
2023-04-16T18:52:47.501Z,24.70
2023-04-16T18:55:15.892Z,31.00
2023-04-16T18:57:45.922Z,31.27
2023-04-16T19:00:15.307Z,28.07
2023-04-16T19:02:43.616Z,26.10
2023-04-16T19:05:12.006Z,29.43
2023-04-16T19:07:41.695Z,24.40
2023-04-16T19:10:10.634Z,27.43
2023-04-16T19:12:39.203Z,30.50
2023-04-16T19:15:09.583Z,28.67
2023-04-16T19:17:39.530Z,32.03
2023-04-16T19:20:11.244Z,28.97
2023-04-16T19:22:39.568Z,32.33
2023-04-16T19:25:08.513Z,26.57
2023-04-16T19:27:36.702Z,27.40
2023-04-16T19:30:06.230Z,26.80
2023-04-16T19:32:36.345Z,31.60
2023-04-16T19:35:04.939Z,37.63
2023-04-16T19:37:33.058Z,31.40
2023-04-16T19:40:02.032Z,28.13
2023-04-16T19:42:30.556Z,28.37
2023-04-16T19:44:58.858Z,29.00
2023-04-16T19:47:27.299Z,32.20
2023-04-16T19:49:56.885Z,33.80
2023-04-16T19:52:25.098Z,26.30
2023-04-16T19:54:53.280Z,26.70
2023-04-16T19:57:21.470Z,27.10
2023-04-16T19:59:49.640Z,26.13
2023-04-16T20:02:17.966Z,24.50
2023-04-16T20:04:48.327Z,26.90
2023-04-16T20:07:17.885Z,29.67
2023-04-16T20:09:46.092Z,28.80
2023-04-16T20:12:14.396Z,29.70
2023-04-16T20:14:43.852Z,25.83
2023-04-16T20:17:12.276Z,25.73
2023-04-16T20:19:40.558Z,25.87
2023-04-16T20:22:08.758Z,29.00
2023-04-16T20:24:38.493Z,29.27
2023-04-16T20:27:06.882Z,28.47
2023-04-16T20:29:35.045Z,23.93
2023-04-16T20:32:03.215Z,27.90
2023-04-16T20:34:31.353Z,28.90
2023-04-16T20:36:59.621Z,28.80
2023-04-16T20:39:27.784Z,22.10
2023-04-16T20:41:57.522Z,24.67
2023-04-16T20:44:26.387Z,31.33
2023-04-16T20:46:56.956Z,23.33
2023-04-16T20:49:25.787Z,30.50
2023-04-16T20:51:53.961Z,28.63
2023-04-16T20:54:22.142Z,21.03
2023-04-16T20:56:50.633Z,28.23
2023-04-16T20:59:20.304Z,24.83
2023-04-16T21:01:48.570Z,30.80
2023-04-16T21:04:16.873Z,33.93
2023-04-16T21:06:45.146Z,27.50
2023-04-16T21:09:13.627Z,24.20
2023-04-16T21:11:41.937Z,25.10
2023-04-16T21:14:10.081Z,24.20
2023-04-16T21:16:39.639Z,35.17
2023-04-16T21:19:08.698Z,26.43
2023-04-16T21:21:38.187Z,25.53
2023-04-16T21:24:06.941Z,24.57
2023-04-16T21:26:35.422Z,29.10
2023-04-16T21:29:04.057Z,24.60
2023-04-16T21:31:32.386Z,28.93
2023-04-16T21:34:01.932Z,25.13
2023-04-16T21:36:32.083Z,30.33
2023-04-16T21:39:00.329Z,27.13
2023-04-16T21:41:28.679Z,25.00
2023-04-16T21:43:56.868Z,28.30
2023-04-16T21:46:26.232Z,23.87
2023-04-16T21:48:54.673Z,23.63
2023-04-16T21:51:29.042Z,27.10
2023-04-16T21:53:57.481Z,25.77
2023-04-16T21:56:26.394Z,26.87
2023-04-16T21:58:54.564Z,25.33
2023-04-16T22:01:22.938Z,27.80
2023-04-16T22:03:52.003Z,34.23
2023-04-16T22:06:20.806Z,23.70
2023-04-16T22:08:50.466Z,24.10
2023-04-16T22:11:18.604Z,33.70
2023-04-16T22:13:47.723Z,30.87
2023-04-16T22:16:16.202Z,25.77
2023-04-16T22:18:45.180Z,26.00
2023-04-16T22:21:13.371Z,25.30
2023-04-16T22:23:41.587Z,25.97
2023-04-16T22:26:12.702Z,27.77
2023-04-16T22:28:40.904Z,31.47
2023-04-16T22:31:10.099Z,29.70
2023-04-16T22:33:38.259Z,33.10
2023-04-16T22:36:07.236Z,31.00
2023-04-16T22:38:35.446Z,32.83
2023-04-16T22:41:03.605Z,25.97
2023-04-16T22:43:34.867Z,34.60
2023-04-16T22:46:04.703Z,30.70
2023-04-16T22:48:33.814Z,30.70
2023-04-16T22:51:02.011Z,28.73
2023-04-16T22:53:30.303Z,34.23
2023-04-16T22:55:58.747Z,29.97
2023-04-16T22:58:26.964Z,33.23
2023-04-16T23:00:59.759Z,37.67
2023-04-16T23:03:28.692Z,54.70
2023-04-16T23:05:56.974Z,38.37
2023-04-16T23:08:25.243Z,32.43
2023-04-16T23:10:53.462Z,29.23
2023-04-16T23:13:21.665Z,39.13
2023-04-16T23:15:49.943Z,36.53
2023-04-16T23:18:19.495Z,36.00
2023-04-16T23:20:47.636Z,31.80
2023-04-16T23:23:15.787Z,33.53
2023-04-16T23:25:43.989Z,37.27
2023-04-16T23:28:12.115Z,40.17
2023-04-16T23:30:40.287Z,46.00
2023-04-16T23:33:08.545Z,40.17
2023-04-16T23:35:38.202Z,39.73
2023-04-16T23:38:06.399Z,42.80
2023-04-16T23:40:34.607Z,37.83
2023-04-16T23:43:02.723Z,41.37
2023-04-16T23:45:30.932Z,48.30
2023-04-16T23:47:59.160Z,40.77
2023-04-16T23:50:27.819Z,43.80
2023-04-16T23:52:57.369Z,40.00
2023-04-16T23:55:25.822Z,41.40
2023-04-16T23:57:53.995Z,44.30
